Flight Track Log - Related Links

Times and Time Zones

All times are in EST time to prevent confusion due to time zone crossing. See the N315CJ flight status page for this flight to view local times or setup timezone preferences in your user account.

Time Position Orientation Groundspeed Altitude Reporting Facility
EST Latitude Longitude Course Direction KTS MPH feet Rate Location/Type
Fri 09:32:43 AM 36.8806 -76.2178 250° West 183 211 800  Level Washington Center
Fri 09:34:01 AM 36.8592 -76.2903 250° West 197 227 5,700 3,630 Climbing Washington Center
Fri 09:36:03 AM 36.8978 -76.4439 287° West 224 258 12,900 3,367 Climbing Washington Center
Fri 09:37:01 AM 36.9161 -76.5244 286° West 237 273 15,800 2,672 Climbing Washington Center
Fri 09:38:02 AM 36.9342 -76.6053 286° West 242 278 18,200 2,380 Climbing Washington Center
Fri 09:39:02 AM 36.9564 -76.6914 288° West 247 284 20,600 2,281 Climbing Washington Center
Fri 09:40:03 AM 36.9764 -76.7747 287° West 247 284 22,800 2,132 Climbing Washington Center
Fri 09:41:03 AM 36.9983 -76.8636 287° West 252 290 24,900 2,085 Climbing Washington Center
Fri 09:42:01 AM 37.0203 -76.9550 287° West 264 304 26,900 1,160 Climbing Washington Center
Fri 09:43:02 AM 37.0464 -77.0594 287° West 288 331 27,200 976 Climbing Washington Center
Fri 09:44:04 AM 37.0658 -77.1692 283° West 314 361 28,900 1,765 Climbing Washington Center
Fri 09:45:01 AM 37.0853 -77.2764 283° West 319 367 30,700 1,916 Climbing Washington Center
Fri 09:46:03 AM 37.1067 -77.3758 285° West 314 361 32,700 1,918 Climbing Washington Center
Fri 09:47:03 AM 37.1578 -77.4525 310° West 285 328 34,600 1,831 Climbing Washington Center
Fri 09:48:01 AM 37.2128 -77.5217 315° West 290 334 36,300 1,831 Climbing Washington Center
Fri 09:49:01 AM 37.2681 -77.5858 317° Northwest 278 320 38,200 1,339 Climbing Washington Center
Fri 09:50:02 AM 37.3172 -77.6497 314° West 264 304 39,000 393 Climbing Washington Center
Fri 09:51:03 AM 37.3744 -77.7192 316° Northwest 269 310 39,000 397 Level Washington Center
Fri 09:52:03 AM 37.4336 -77.7914 316° Northwest 281 323 39,800 900 Climbing Washington Center
Fri 09:53:03 AM 37.4906 -77.8636 315° West 286 329 40,800 610 Climbing Washington Center
Fri 09:54:01 AM 37.5475 -77.9386 314° West 286 329 41,000 203 Climbing Washington Center
Fri 09:55:01 AM 37.6128 -78.0169 316° Northwest 305 351 41,200 650 Climbing Washington Center
Fri 09:56:01 AM 37.6736 -78.0947 315° West 310 357 42,300 812 Climbing Washington Center
Fri 09:57:14 AM 37.7469 -78.1867 315° West 310 357 43,000 313 Climbing Washington Center
Fri 09:58:15 AM 37.8117 -78.2703 314° West 310 357 43,000 203 Level Washington Center
Fri 09:59:12 AM 37.8808 -78.3542 316° Northwest 331 381 43,400 655 Climbing Washington Center
Fri 10:00:14 AM 37.9314 -78.4194 314° West 331 381 44,300 780 Climbing Washington Center
Fri 10:01:15 AM 38.0061 -78.5197 313° West 331 381 45,000 347 Climbing Washington Center
Fri 10:02:15 AM 38.0625 -78.5983 312° West 328 377 45,000  Level Washington Center
Fri 10:03:12 AM 38.1372 -78.6939 315° West 336 387 45,000  Level Washington Center
Fri 10:04:13 AM 38.1981 -78.7675 316° Northwest 336 387 45,000  Level Washington Center
Fri 10:05:14 AM 38.2564 -78.8414 315° West 341 392 45,000  Level Washington Center
Fri 10:06:15 AM 38.3289 -78.9347 315° West 341 392 45,000  Level Washington Center
Fri 10:07:15 AM 38.4014 -79.0281 315° West 335 386 45,000  Level Washington Center
Fri 10:08:13 AM 38.4617 -79.1078 314° West 343 395 45,000  Level Washington Center
Fri 10:09:14 AM 38.5339 -79.2039 314° West 343 395 45,000  Level Washington Center
Fri 10:10:14 AM 38.5919 -79.2811 314° West 343 395 45,000  Level Washington Center
Fri 10:11:12 AM 38.6561 -79.3694 313° West 343 395 45,000  Level Washington Center
Fri 10:12:13 AM 38.7242 -79.4556 315° West 343 395 45,000  Level Washington Center
Fri 10:14:28 AM 38.8728 -79.6503 314° West 342 394 45,000  Level Indianapolis Center
Fri 10:15:30 AM 38.9408 -79.7400 314° West 347 399 45,000  Level Indianapolis Center
Fri 10:16:32 AM 39.0086 -79.8306 314° West 351 404 45,000  Level Indianapolis Center
Fri 10:17:34 AM 39.0883 -79.9400 313° West 350 403 45,000  Level Indianapolis Center
Fri 10:18:36 AM 39.1575 -80.0319 314° West 355 409 45,000  Level Indianapolis Center
Fri 10:19:38 AM 39.2233 -80.1186 314° West 354 407 45,000  Level Cleveland Center
Fri 10:20:40 AM 39.2903 -80.2097 314° West 351 404 45,000  Level Cleveland Center
Fri 10:21:42 AM 39.3581 -80.3017 314° West 352 405 45,000  Level Cleveland Center
Fri 10:22:44 AM 39.4394 -80.4131 313° West 352 405 45,000  Level Cleveland Center
Fri 10:23:47 AM 39.5083 -80.5081 313° West 349 402 45,000  Level Indianapolis Center
Fri 10:24:49 AM 39.5744 -80.5983 314° West 347 399 45,000  Level Indianapolis Center
Fri 10:25:50 AM 39.6381 -80.6881 313° West 346 398 45,000  Level Cleveland Center
Fri 10:26:52 AM 39.7039 -80.7767 314° West 344 396 45,000  Level Cleveland Center
Fri 10:27:54 AM 39.7692 -80.8683 313° West 344 396 45,000  Level Cleveland Center
Fri 10:28:07 AM 39.7828 -80.8858 315° West 344 396 45,000  Level Cleveland Center
Fri 10:28:57 AM 39.8350 -80.9583 313° West 337 388 45,000  Level Indianapolis Center
Fri 10:29:59 AM 39.9125 -81.0669 313° West 339 390 45,000  Level Indianapolis Center
Fri 10:32:15 AM 40.0472 -81.2556 313° West 325 374 45,000  Level Cleveland Center
Fri 10:33:17 AM 40.1094 -81.3431 313° West 326 375 45,000  Level Cleveland Center
Fri 10:34:19 AM 40.1719 -81.4317 313° West 330 380 45,000  Level Cleveland Center
Fri 10:35:21 AM 40.2350 -81.5197 313° West 331 381 45,000  Level Cleveland Center
Fri 10:36:23 AM 40.3128 -81.6300 313° West 341 392 45,000  Level Cleveland Center
Fri 10:37:25 AM 40.3711 -81.7122 313° West 344 396 45,000  Level Cleveland Center
Fri 10:38:27 AM 40.4469 -81.8222 312° West 345 397 45,000  Level Cleveland Center
Fri 10:39:29 AM 40.5114 -81.9128 313° West 337 388 45,000  Level Cleveland Center
Fri 10:40:30 AM 40.5753 -82.0061 312° West 338 389 45,000  Level Cleveland Center
Fri 10:41:33 AM 40.6392 -82.0972 313° West 335 386 45,000  Level Cleveland Center
Fri 10:42:35 AM 40.7033 -82.1889 313° West 336 387 45,000  Level Cleveland Center
Fri 10:43:37 AM 40.7661 -82.2822 312° West 336 387 45,000  Level Cleveland Center
Fri 10:44:39 AM 40.8292 -82.3731 313° West 333 383 45,000  Level Cleveland Center
Fri 10:45:41 AM 40.8919 -82.4644 312° West 332 382 45,000 -48 Level Cleveland Center
Fri 10:46:43 AM 40.9522 -82.5531 312° West 324 373 44,900 -629 Descending Cleveland Center
Fri 10:47:45 AM 41.0222 -82.6539 313° West 314 361 43,700 -1,161 Descending Cleveland Center
Fri 10:48:47 AM 41.0761 -82.7347 312° West 295 339 42,500 -1,161 Descending Cleveland Center
Fri 10:49:49 AM 41.1303 -82.8136 312° West 287 330 41,300 -1,161 Descending Cleveland Center
Fri 10:50:51 AM 41.1831 -82.8917 312° West 283 326 40,100 -1,161 Descending Cleveland Center
Fri 10:51:53 AM 41.2336 -82.9681 311° West 276 318 38,900 -968 Descending Cleveland Center
Fri 10:52:55 AM 41.2850 -83.0439 312° West 274 315 38,100 -435 Descending Cleveland Center
Fri 10:53:57 AM 41.3397 -83.1269 311° West 290 334 38,000 -48 Descending Cleveland Center
Fri 10:54:59 AM 41.4011 -83.2172 312° West 298 343 38,000  Level Cleveland Center
Fri 10:56:01 AM 41.4567 -83.3011 311° West 302 348 38,000 -339 Level Cleveland Center
Fri 10:57:03 AM 41.5119 -83.3853 311° West 300 345 37,300 -1,016 Descending Cleveland Center
Fri 10:58:05 AM 41.5686 -83.4683 312° West 302 348 35,900 -1,355 Descending Cleveland Center
Fri 10:59:07 AM 41.6233 -83.5522 311° West 300 345 34,500 -1,500 Descending Cleveland Center
Fri 11:00:09 AM 41.6903 -83.6539 311° West 302 348 32,800 -1,500 Descending Cleveland Center
Fri 11:01:11 AM 41.7461 -83.7394 311° West 304 350 31,400 -1,366 Descending Cleveland Center
Fri 11:02:12 AM 41.8011 -83.8219 312° West 298 343 30,000 -1,366 Descending Cleveland Center
Fri 11:03:14 AM 41.8553 -83.9064 311° West 298 343 28,600 -1,355 Descending Cleveland Center
Fri 11:04:16 AM 41.9111 -83.9928 311° West 305 351 27,200 -1,355 Descending Cleveland Center
Fri 11:05:18 AM 41.9683 -84.0794 312° West 308 354 25,800 -1,403 Descending Cleveland Center
Fri 11:06:20 AM 42.0242 -84.1661 311° West 306 352 24,300 -1,500 Descending Cleveland Center
Fri 11:07:22 AM 42.0867 -84.2636 311° West 289 333 22,700 -1,452 Descending Cleveland Center
Fri 11:08:24 AM 42.1389 -84.3444 311° West 287 330 21,300 -1,429 Descending Cleveland Center
Fri 11:09:07 AM 42.1772 -84.4058 310° West 292 336 20,200 -1,442 Descending Chicago Center
Fri 11:10:08 AM 42.2333 -84.4900 312° West 301 346 18,800 -1,171 Descending Chicago Center
Fri 11:11:10 AM 42.2892 -84.5792 310° West 309 356 17,800 -1,161 Descending Chicago Center
Fri 11:12:12 AM 42.3461 -84.6675 311° West 314 361 16,400 -1,366 Descending Chicago Center
Fri 11:13:13 AM 42.4017 -84.7553 311° West 310 357 15,000 -1,415 Descending Chicago Center
Fri 11:14:15 AM 42.4564 -84.8408 311° West 304 350 13,500 -1,306 Descending Chicago Center
Fri 11:15:17 AM 42.5056 -84.9206 310° West 286 329 12,300 -1,512 Descending Chicago Center
Fri 11:16:18 AM 42.5636 -85.0144 310° West 275 316 10,400 -1,659 Descending Chicago Center
Fri 11:17:20 AM 42.5850 -85.0964 290° West 239 275 8,900 -1,452 Descending Chicago Center
Fri 11:18:22 AM 42.6058 -85.1803 289° West 235 270 7,400 -1,403 Descending Chicago Center
Fri 11:19:24 AM 42.6264 -85.2589 290° West 226 260 6,000 -1,415 Descending Chicago Center
Fri 11:20:25 AM 42.6456 -85.3344 289° West 217 250 4,500 -1,415 Descending Chicago Center
Fri 11:21:27 AM 42.6653 -85.4100 290° West 214 246 3,100 -677 Descending Chicago Center
Fri 11:22:29 AM 42.6936 -85.4656 305° West 189 217 3,100  Level Chicago Center
Fri 11:23:30 AM 42.7408 -85.4889 340° North 156 180 3,100 -244 Level Chicago Center
Fri 11:24:32 AM 42.7864 -85.4975 352° North 162 186 2,600 -677 Descending Chicago Center
Fri 11:25:34 AM 42.8283 -85.5058 352° North 160 184 1,700 -726 Descending Chicago Center
Fri 11:26:36 AM 42.8547 -85.5117 351° North 121 139 1,100 -390 Descending Chicago Center
Fri 11:27:37 AM 42.8781 -85.5153 354° North 111 128 900 -197 Descending Chicago Center

Login

Don't have an account? Register now (free) for customized features, flight alerts, and more!